Casper, WY

7:00 AM MDT on August 01, 2014 (GMT -0600)
North of Casper, WY (KWYBARNU1) Elev 5276 ft | 42.91 °N, 106.35 °W | Change Station

Current weather conditions updated 2 minutes ago

Clear
Clear
51.6 °F
Feels Like 51.6 °F
N
0.0
Wind Variable Wind from NNE
Gusts 0.0 mph

Today is forecast to be nearly the same temperature as yesterday.

Today
High -- | Low -- °F
--% Chance of Precip.
Yesterday
High -- | Low -- °F
Precip. -- in
5:56 AM 8:25 PM
Waxing Crescent, 26% visible
Pressure 30.08 in
Visibility 10.0 miles
Clouds Clear
Dew Point 38 °F
Humidity 60%
Rainfall 0.00 in
Snow Depth 0 in
UV 0 out of 12
Pollen 6.60 out of 12
Air Quality Not available.
Flu Activity Not available.
METAR KCPR 011253Z 00000KT 10SM CLR 12/05 A3026 RMK AO2 SLP186 T01170050

More Conditions Fewer Conditions

Pressure 30.08 in
Visibility 10.0 miles
Clouds Clear
Dew Point 38 °F
Humidity 60%
Rainfall 0.00 in
Snow Depth 0 in
UV 0 out of 12
Pollen 6.60 out of 12
Air Quality Not available.
Flu Activity Not available.
METAR KCPR 011253Z 00000KT 10SM CLR 12/05 A3026 RMK AO2 SLP186 T01170050

More Conditions Fewer Conditions

10-Day Weather Forecast

Almanac

Astronomy

Aug. 01, 2014 Rise Set
Actual Time 5:56 AM MDT 8:25 PM MDT
Civil Twilight 5:24 AM MDT 8:57 PM MDT
Nautical Twilight 4:44 AM MDT 9:37 PM MDT
Astronomical Twilight 3:59 AM MDT 10:22 PM MDT
Moon 11:32 AM MDT 11:02 PM MDT
Length of Visible Light 15h 33m
Length of Day
14h 29m
Tomorrow will be 2m 14s shorter.
Waxing Crescent, 26% of the Moon is Illuminated
Today
Waxing Crescent
Aug 3
First Quarter
Aug 10
Full
Aug 17
Last Quarter
Aug 25
New

Today's Extremes

State Highs State Lows

Community

WunderPhotos

Upload Photos

1,739,551 photos uploaded!

Nearby

Snow Depth

Station Depth Elevation
Casper Mountain 0 in 7850 ft
Reno Hill 0 in 8500 ft
Laprele Creek 0 in 8375 ft
Windy Peak 0 in 7900 ft
Grave Springs 1 in 8550 ft

Earthquake Activity

City Distance Mag. Time & Date
No recent earthquake activity has been reported nearby.
Minimum magnitude displayed is 2.5.

Coastal Water Temperatures

Place Temperature
No Stations Reporting

Nearby Weather Stations

Station Location Temp. Dew Point Humidity Wind Precip. Elev Updated Type
HADS NORTH PLATTE RIVER AT CASPER WY, Casper, WY 55 °F - - North  at  - 0.00 in / hr 5100 ft 5:30 AM MDT MADIS
North of Casper, WY, Bar Nunn, WY 51.6 °F 38 °F 60% NNE  at  0.0 mph 0.00 in / hr 5276 ft 6:58 AM MDT Normal
RAWS CASPER MOUNTAIN WY, Casper, WY 58 °F 36 °F 44% SE  at  6 mph 0.00 in / hr 7740 ft 5:52 AM MDT MADIS

Show More Stations Show Fewer Stations